Time,TemperatureF,DewpointF,PressureIn,WindDirection,WindDirectionDegrees,WindSpeedMPH,WindSpeedGustMPH,Humidity,HourlyPrecipIn,Conditions,Clouds,dailyrainin,SoftwareType,DateUTC
2013-02-18 00:00:00,49.7,38.4,30.30,WNW,291,1.0,5.0,65,0.00,,,0.00,Wunderground v.1.15,2013-02-18 05:00:00,
2013-02-18 00:10:00,49.6,38.3,30.30,WSW,256,1.0,2.0,65,0.00,,,0.00,Wunderground v.1.15,2013-02-18 05:10:00,
2013-02-18 00:20:00,49.6,38.3,30.30,West,270,1.0,1.0,65,0.00,,,0.00,Wunderground v.1.15,2013-02-18 05:20:00,
2013-02-18 00:25:00,49.6,38.3,30.30,WNW,291,1.0,1.0,65,0.00,,,0.00,Wunderground v.1.15,2013-02-18 05:25:00,
2013-02-18 00:30:00,49.5,38.2,30.29,SSW,194,1.0,1.0,65,0.00,,,0.00,Wunderground v.1.15,2013-02-18 05:30:00,
2013-02-18 00:40:00,49.5,38.2,30.29,NW,305,1.0,4.0,65,0.00,,,0.00,Wunderground v.1.15,2013-02-18 05:40:00,
2013-02-18 00:50:00,49.5,38.2,30.29,West,259,2.0,2.0,65,0.00,,,0.00,Wunderground v.1.15,2013-02-18 05:50:00,
2013-02-18 01:00:00,49.6,38.3,30.29,WSW,242,2.0,2.0,65,0.00,,,0.00,Wunderground v.1.15,2013-02-18 06:00:00,
2013-02-18 01:10:00,49.5,38.2,30.29,SSW,201,1.0,1.0,65,0.00,,,0.00,Wunderground v.1.15,2013-02-18 06:10:00,
2013-02-18 01:20:00,49.5,38.2,30.29,NNE,15,1.0,3.0,65,0.00,,,0.00,Wunderground v.1.15,2013-02-18 06:20:00,
2013-02-18 01:30:00,49.4,38.1,30.29,West,276,1.0,1.0,65,0.00,,,0.00,Wunderground v.1.15,2013-02-18 06:30:00,
2013-02-18 01:40:00,49.4,38.1,30.29,WNW,291,1.0,1.0,65,0.00,,,0.00,Wunderground v.1.15,2013-02-18 06:40:00,
2013-02-18 01:50:00,49.3,38.4,30.28,WSW,252,1.0,1.0,66,0.00,,,0.00,Wunderground v.1.15,2013-02-18 06:50:00,
2013-02-18 02:00:00,49.3,38.0,30.28,West,271,2.0,2.0,65,0.00,,,0.00,Wunderground v.1.15,2013-02-18 07:00:00,
2013-02-18 02:10:00,49.2,38.3,30.28,NW,316,1.0,1.0,66,0.00,,,0.00,Wunderground v.1.15,2013-02-18 07:10:00,
2013-02-18 02:20:00,49.1,37.8,30.27,West,281,1.0,1.0,65,0.00,,,0.00,Wunderground v.1.15,2013-02-18 07:20:00,
2013-02-18 02:30:00,49.0,37.7,30.27,NNW,333,1.0,1.0,65,0.00,,,0.00,Wunderground v.1.15,2013-02-18 07:30:00,
2013-02-18 02:40:00,49.0,37.7,30.27,NW,305,1.0,1.0,65,0.00,,,0.00,Wunderground v.1.15,2013-02-18 07:40:00,
2013-02-18 02:50:00,48.9,37.6,30.27,NW,319,2.0,3.0,65,0.00,,,0.00,Wunderground v.1.15,2013-02-18 07:50:00,
2013-02-18 03:00:00,48.9,37.6,30.26,WSW,252,2.0,2.0,65,0.00,,,0.00,Wunderground v.1.15,2013-02-18 08:00:00,
2013-02-18 03:10:00,48.9,38.0,30.26,SW,229,2.0,2.0,66,0.00,,,0.00,Wunderground v.1.15,2013-02-18 08:10:00,
2013-02-18 03:20:00,48.7,37.8,30.26,NW,308,1.0,1.0,66,0.00,,,0.00,Wunderground v.1.15,2013-02-18 08:20:00,
2013-02-18 03:30:00,48.7,37.8,30.26,West,262,1.0,1.0,66,0.00,,,0.00,Wunderground v.1.15,2013-02-18 08:30:00,
2013-02-18 03:40:00,48.7,38.2,30.26,West,280,1.0,2.0,67,0.00,,,0.00,Wunderground v.1.15,2013-02-18 08:40:00,
2013-02-18 03:50:00,48.7,38.2,30.25,SSW,207,1.0,1.0,67,0.00,,,0.00,Wunderground v.1.15,2013-02-18 08:50:00,
2013-02-18 03:55:00,48.7,38.2,30.25,West,273,1.0,1.0,67,0.00,,,0.00,Wunderground v.1.15,2013-02-18 08:55:00,
2013-02-18 04:00:00,48.7,38.2,30.25,WNW,297,1.0,1.0,67,0.00,,,0.00,Wunderground v.1.15,2013-02-18 09:00:00,
2013-02-18 04:10:00,48.7,38.2,30.26,WNW,296,1.0,2.0,67,0.00,,,0.00,Wunderground v.1.15,2013-02-18 09:10:00,
2013-02-18 04:20:00,48.6,38.1,30.26,West,280,1.0,1.0,67,0.00,,,0.00,Wunderground v.1.15,2013-02-18 09:20:00,
2013-02-18 04:30:00,48.6,38.1,30.26,NW,315,1.0,2.0,67,0.00,,,0.00,Wunderground v.1.15,2013-02-18 09:30:00,
2013-02-18 04:40:00,48.7,38.2,30.26,WNW,302,1.0,3.0,67,0.00,,,0.00,Wunderground v.1.15,2013-02-18 09:40:00,
2013-02-18 04:50:00,48.6,38.1,30.26,WNW,297,1.0,1.0,67,0.00,,,0.00,Wunderground v.1.15,2013-02-18 09:50:00,
2013-02-18 05:00:00,48.6,38.1,30.26,NW,314,1.0,1.0,67,0.00,,,0.00,Wunderground v.1.15,2013-02-18 10:00:00,
2013-02-18 05:10:00,48.7,38.2,30.26,NW,310,2.0,2.0,67,0.00,,,0.00,Wunderground v.1.15,2013-02-18 10:10:00,
2013-02-18 05:20:00,48.7,38.2,30.26,SSW,204,1.0,1.0,67,0.00,,,0.00,Wunderground v.1.15,2013-02-18 10:20:00,
2013-02-18 05:30:00,48.5,38.0,30.26,WSW,243,1.0,1.0,67,0.00,,,0.00,Wunderground v.1.15,2013-02-18 10:30:00,
2013-02-18 05:40:00,48.6,38.1,30.27,West,280,1.0,1.0,67,0.00,,,0.00,Wunderground v.1.15,2013-02-18 10:40:00,
2013-02-18 05:50:00,48.6,37.7,30.27,NW,314,2.0,4.0,66,0.00,,,0.00,Wunderground v.1.15,2013-02-18 10:50:00,
2013-02-18 06:00:00,48.5,37.7,30.27,SSW,205,1.0,1.0,66,0.00,,,0.00,Wunderground v.1.15,2013-02-18 11:00:00,
2013-02-18 06:10:00,48.4,37.6,30.27,WNW,300,2.0,2.0,66,0.00,,,0.00,Wunderground v.1.15,2013-02-18 11:10:00,
2013-02-18 06:20:00,48.3,37.5,30.27,West,270,1.0,2.0,66,0.00,,,0.00,Wunderground v.1.15,2013-02-18 11:20:00,
2013-02-18 06:30:00,48.3,37.5,30.27,WNW,293,1.0,1.0,66,0.00,,,0.00,Wunderground v.1.15,2013-02-18 11:30:00,
2013-02-18 06:40:00,48.2,37.4,30.27,West,271,1.0,1.0,66,0.00,,,0.00,Wunderground v.1.15,2013-02-18 11:40:00,
2013-02-18 06:45:00,48.2,37.4,30.28,West,280,1.0,3.0,66,0.00,,,0.00,Wunderground v.1.15,2013-02-18 11:45:00,
2013-02-18 06:54:00,48.2,37.4,30.28,NW,317,1.0,2.0,66,0.00,,,0.00,Wunderground v.1.15,2013-02-18 11:54:00,
2013-02-18 07:00:00,48.2,37.4,30.28,NW,314,1.0,1.0,66,0.00,,,0.00,Wunderground v.1.15,2013-02-18 12:00:00,
2013-02-18 07:09:00,48.2,37.8,30.28,West,263,1.0,1.0,67,0.00,,,0.00,Wunderground v.1.15,2013-02-18 12:09:00,
2013-02-18 07:15:00,48.2,37.8,30.28,West,277,1.0,1.0,67,0.00,,,0.00,Wunderground v.1.15,2013-02-18 12:15:00,
2013-02-18 07:25:00,48.3,37.8,30.29,SSW,205,1.0,2.0,67,0.00,,,0.00,Wunderground v.1.15,2013-02-18 12:25:00,
2013-02-18 07:30:00,48.4,37.9,30.29,West,278,1.0,1.0,67,0.00,,,0.00,Wunderground v.1.15,2013-02-18 12:30:00,
2013-02-18 07:40:00,48.7,38.2,30.29,SW,229,1.0,1.0,67,0.00,,,0.00,Wunderground v.1.15,2013-02-18 12:40:00,
2013-02-18 07:49:00,49.1,38.6,30.29,WNW,297,1.0,1.0,67,0.00,,,0.00,Wunderground v.1.15,2013-02-18 12:49:00,
2013-02-18 07:55:00,49.5,38.6,30.30,WNW,294,1.0,1.0,66,0.00,,,0.00,Wunderground v.1.15,2013-02-18 12:55:00,
2013-02-18 08:00:00,49.8,39.3,30.30,NW,307,1.0,1.0,67,0.00,,,0.00,Wunderground v.1.15,2013-02-18 13:00:00,
2013-02-18 08:10:00,50.1,39.2,30.29,WNW,291,1.0,1.0,66,0.00,,,0.00,Wunderground v.1.15,2013-02-18 13:10:00,
2013-02-18 08:20:00,50.9,40.3,30.30,NW,312,0.0,2.0,67,0.00,,,0.00,Wunderground v.1.15,2013-02-18 13:20:00,
2013-02-18 08:30:00,51.1,40.1,30.30,West,266,1.0,1.0,66,0.00,,,0.00,Wunderground v.1.15,2013-02-18 13:30:00,
2013-02-18 08:40:00,52.1,41.1,30.30,NW,316,1.0,2.0,66,0.00,,,0.00,Wunderground v.1.15,2013-02-18 13:40:00,
2013-02-18 08:50:00,53.6,42.5,30.30,WNW,284,1.0,1.0,66,0.00,,,0.00,Wunderground v.1.15,2013-02-18 13:50:00,
2013-02-18 09:00:00,54.6,42.7,30.30,SW,231,1.0,1.0,64,0.00,,,0.00,Wunderground v.1.15,2013-02-18 14:00:00,
2013-02-18 09:05:00,55.2,43.2,30.30,WSW,238,1.0,1.0,64,0.00,,,0.00,Wunderground v.1.15,2013-02-18 14:05:00,
2013-02-18 09:15:00,58.1,46.8,30.31,NNE,20,1.0,2.0,66,0.00,,,0.00,Wunderground v.1.15,2013-02-18 14:15:00,
2013-02-18 09:20:00,60.9,49.1,30.30,NNE,25,2.0,4.0,65,0.00,,,0.00,Wunderground v.1.15,2013-02-18 14:20:00,
2013-02-18 09:30:00,63.3,48.3,30.31,NW,322,5.0,5.0,58,0.00,,,0.00,Wunderground v.1.15,2013-02-18 14:30:00,
2013-02-18 09:40:00,64.8,48.7,30.31,NE,56,5.0,5.0,56,0.00,,,0.00,Wunderground v.1.15,2013-02-18 14:40:00,
2013-02-18 09:50:00,64.9,48.3,30.31,ENE,63,4.0,5.0,55,0.00,,,0.00,Wunderground v.1.15,2013-02-18 14:50:00,
2013-02-18 09:55:00,64.9,48.8,30.31,North,11,4.0,5.0,56,0.00,,,0.00,Wunderground v.1.15,2013-02-18 14:55:00,
2013-02-18 10:00:00,64.8,47.8,30.32,NNW,344,4.0,4.0,54,0.00,,,0.00,Wunderground v.1.15,2013-02-18 15:00:00,
2013-02-18 10:10:00,65.8,48.7,30.32,North,4,4.0,8.0,54,0.00,,,0.00,Wunderground v.1.15,2013-02-18 15:10:00,
2013-02-18 10:15:00,65.9,49.3,30.32,ESE,103,5.0,8.0,55,0.00,,,0.00,Wunderground v.1.15,2013-02-18 15:15:00,
2013-02-18 10:25:00,65.6,49.0,30.32,NW,312,4.0,4.0,55,0.00,,,0.00,Wunderground v.1.15,2013-02-18 15:25:00,
2013-02-18 10:35:00,65.1,48.5,30.32,NE,36,4.0,5.0,55,0.00,,,0.00,Wunderground v.1.15,2013-02-18 15:35:00,
2013-02-18 10:45:00,65.2,48.6,30.32,NW,319,4.0,4.0,55,0.00,,,0.00,Wunderground v.1.15,2013-02-18 15:45:00,
2013-02-18 10:50:00,65.6,49.5,30.32,NNE,30,4.0,4.0,56,0.00,,,0.00,Wunderground v.1.15,2013-02-18 15:50:00,
2013-02-18 11:00:00,66.4,49.2,30.32,NNW,345,4.0,8.0,54,0.00,,,0.00,Wunderground v.1.15,2013-02-18 16:00:00,
2013-02-18 11:10:00,67.4,49.7,30.32,WNW,294,4.0,4.0,53,0.00,,,0.00,Wunderground v.1.15,2013-02-18 16:10:00,
2013-02-18 11:20:00,66.5,49.3,30.32,North,1,4.0,6.0,54,0.00,,,0.00,Wunderground v.1.15,2013-02-18 16:20:00,
2013-02-18 11:30:00,66.3,50.1,30.31,WNW,297,4.0,4.0,56,0.00,,,0.00,Wunderground v.1.15,2013-02-18 16:30:00,
2013-02-18 11:39:00,66.3,50.1,30.31,North,349,3.0,5.0,56,0.00,,,0.00,Wunderground v.1.15,2013-02-18 16:39:00,
2013-02-18 11:45:00,66.4,50.2,30.31,ENE,77,4.0,5.0,56,0.00,,,0.00,Wunderground v.1.15,2013-02-18 16:45:00,
2013-02-18 11:55:00,67.7,50.9,30.31,NE,56,4.0,9.0,55,0.00,,,0.00,Wunderground v.1.15,2013-02-18 16:55:00,
2013-02-18 12:00:00,67.9,51.1,30.31,ENE,58,4.0,4.0,55,0.00,,,0.00,Wunderground v.1.15,2013-02-18 17:00:00,
2013-02-18 12:10:00,67.2,50.5,30.31,NW,325,4.0,4.0,55,0.00,,,0.00,Wunderground v.1.15,2013-02-18 17:10:00,
2013-02-18 12:20:00,66.7,50.5,30.30,NNW,342,3.0,3.0,56,0.00,,,0.00,Wunderground v.1.15,2013-02-18 17:20:00,
2013-02-18 12:25:00,66.6,50.9,30.30,North,351,4.0,4.0,57,0.00,,,0.00,Wunderground v.1.15,2013-02-18 17:25:00,
2013-02-18 12:35:00,67.1,51.8,30.30,NW,309,4.0,5.0,58,0.00,,,0.00,Wunderground v.1.15,2013-02-18 17:35:00,
2013-02-18 12:45:00,67.2,51.0,30.29,NNW,339,5.0,7.0,56,0.00,,,0.00,Wunderground v.1.15,2013-02-18 17:45:00,
2013-02-18 12:55:00,66.6,51.8,30.29,NNE,18,4.0,5.0,59,0.00,,,0.00,Wunderground v.1.15,2013-02-18 17:55:00,
2013-02-18 13:00:00,66.8,52.0,30.29,NNW,328,4.0,4.0,59,0.00,,,0.00,Wunderground v.1.15,2013-02-18 18:00:00,
2013-02-18 13:10:00,67.9,52.6,30.28,NNW,339,3.0,3.0,58,0.00,,,0.00,Wunderground v.1.15,2013-02-18 18:10:00,
2013-02-18 13:20:00,68.0,53.6,30.28,NNW,347,4.0,4.0,60,0.00,,,0.00,Wunderground v.1.15,2013-02-18 18:20:00,
2013-02-18 13:25:00,67.6,52.8,30.27,North,351,4.0,4.0,59,0.00,,,0.00,Wunderground v.1.15,2013-02-18 18:25:00,
2013-02-18 13:35:00,67.2,52.8,30.27,North,8,4.0,5.0,60,0.00,,,0.00,Wunderground v.1.15,2013-02-18 18:35:00,
2013-02-18 13:45:00,67.4,52.6,30.27,NNE,20,5.0,5.0,59,0.00,,,0.00,Wunderground v.1.15,2013-02-18 18:45:00,
2013-02-18 13:55:00,68.4,53.0,30.26,North,352,4.0,5.0,58,0.00,,,0.00,Wunderground v.1.15,2013-02-18 18:55:00,
2013-02-18 14:00:00,68.6,53.7,30.26,ENE,76,4.0,4.0,59,0.00,,,0.00,Wunderground v.1.15,2013-02-18 19:00:00,
2013-02-18 14:10:00,67.9,54.0,30.26,NNW,348,4.0,5.0,61,0.00,,,0.00,Wunderground v.1.15,2013-02-18 19:10:00,
2013-02-18 14:20:00,67.3,53.4,30.25,NNW,328,4.0,4.0,61,0.00,,,0.00,Wunderground v.1.15,2013-02-18 19:20:00,
2013-02-18 14:25:00,67.2,53.7,30.25,NW,314,5.0,5.0,62,0.00,,,0.00,Wunderground v.1.15,2013-02-18 19:25:00,
2013-02-18 14:35:00,67.3,53.4,30.25,WNW,302,5.0,10.0,61,0.00,,,0.00,Wunderground v.1.15,2013-02-18 19:35:00,
2013-02-18 14:40:00,67.4,53.9,30.24,NE,39,4.0,4.0,62,0.00,,,0.00,Wunderground v.1.15,2013-02-18 19:40:00,
2013-02-18 14:50:00,67.7,53.8,30.24,NW,318,5.0,5.0,61,0.00,,,0.00,Wunderground v.1.15,2013-02-18 19:50:00,
2013-02-18 15:00:00,69.4,55.4,30.24,WNW,294,4.0,4.0,61,0.00,,,0.00,Wunderground v.1.15,2013-02-18 20:00:00,
2013-02-18 15:10:00,68.6,54.6,30.23,North,8,5.0,5.0,61,0.00,,,0.00,Wunderground v.1.15,2013-02-18 20:10:00,
2013-02-18 15:20:00,68.6,53.7,30.23,NNW,333,4.0,4.0,59,0.00,,,0.00,Wunderground v.1.15,2013-02-18 20:20:00,
2013-02-18 15:30:00,68.7,53.3,30.23,ENE,74,5.0,8.0,58,0.00,,,0.00,Wunderground v.1.15,2013-02-18 20:30:00,
2013-02-18 15:40:00,68.4,53.5,30.23,NE,38,4.0,4.0,59,0.00,,,0.00,Wunderground v.1.15,2013-02-18 20:40:00,
2013-02-18 15:50:00,68.1,53.2,30.23,NE,47,4.0,4.0,59,0.00,,,0.00,Wunderground v.1.15,2013-02-18 20:50:00,
2013-02-18 16:00:00,68.0,53.1,30.23,NE,51,4.0,4.0,59,0.00,,,0.00,Wunderground v.1.15,2013-02-18 21:00:00,
2013-02-18 16:10:00,68.0,53.6,30.23,ESE,117,3.0,3.0,60,0.00,,,0.00,Wunderground v.1.15,2013-02-18 21:10:00,
2013-02-18 16:20:00,68.0,52.7,30.23,NNW,335,4.0,4.0,58,0.00,,,0.00,Wunderground v.1.15,2013-02-18 21:20:00,
2013-02-18 16:30:00,68.1,52.8,30.23,NE,42,3.0,3.0,58,0.00,,,0.00,Wunderground v.1.15,2013-02-18 21:30:00,
2013-02-18 16:35:00,68.0,52.7,30.23,NE,53,2.0,3.0,58,0.00,,,0.00,Wunderground v.1.15,2013-02-18 21:35:00,
2013-02-18 16:45:00,67.8,51.5,30.24,East,79,3.0,6.0,56,0.00,,,0.00,Wunderground v.1.15,2013-02-18 21:45:00,
2013-02-18 16:55:00,67.7,51.9,30.23,NNW,335,4.0,6.0,57,0.00,,,0.00,Wunderground v.1.15,2013-02-18 21:55:00,
2013-02-18 17:00:00,67.9,52.1,30.24,ENE,78,3.0,3.0,57,0.00,,,0.00,Wunderground v.1.15,2013-02-18 22:00:00,
2013-02-18 17:10:00,68.0,53.1,30.24,NNW,345,3.0,3.0,59,0.00,,,0.00,Wunderground v.1.15,2013-02-18 22:10:00,
2013-02-18 17:20:00,67.8,53.9,30.24,NNW,330,2.0,2.0,61,0.00,,,0.00,Wunderground v.1.15,2013-02-18 22:20:00,
2013-02-18 17:30:00,67.5,53.6,30.24,NE,34,2.0,4.0,61,0.00,,,0.00,Wunderground v.1.15,2013-02-18 22:30:00,
2013-02-18 17:40:00,67.4,53.5,30.24,NNE,16,3.0,3.0,61,0.00,,,0.00,Wunderground v.1.15,2013-02-18 22:40:00,
2013-02-18 17:49:00,67.3,53.4,30.24,NW,321,2.0,4.0,61,0.00,,,0.00,Wunderground v.1.15,2013-02-18 22:49:00,
2013-02-18 17:55:00,67.2,53.7,30.23,NNW,342,2.0,4.0,62,0.00,,,0.00,Wunderground v.1.15,2013-02-18 22:55:00,
2013-02-18 18:00:00,67.2,54.2,30.23,NNW,330,3.0,3.0,63,0.00,,,0.00,Wunderground v.1.15,2013-02-18 23:00:00,
2013-02-18 18:10:00,67.0,54.0,30.23,NNW,342,4.0,4.0,63,0.00,,,0.00,Wunderground v.1.15,2013-02-18 23:10:00,
2013-02-18 18:20:00,67.0,54.4,30.23,NE,44,3.0,3.0,64,0.00,,,0.00,Wunderground v.1.15,2013-02-18 23:20:00,
2013-02-18 18:30:00,67.1,54.1,30.24,East,83,3.0,3.0,63,0.00,,,0.00,Wunderground v.1.15,2013-02-18 23:30:00,
2013-02-18 18:35:00,67.1,54.5,30.23,NW,305,3.0,3.0,64,0.00,,,0.00,Wunderground v.1.15,2013-02-18 23:35:00,
2013-02-18 18:45:00,67.1,54.9,30.23,ENE,58,3.0,5.0,65,0.00,,,0.00,Wunderground v.1.15,2013-02-18 23:45:00,
2013-02-18 18:50:00,67.1,54.5,30.23,ESE,106,3.0,4.0,64,0.00,,,0.00,Wunderground v.1.15,2013-02-18 23:50:00,
2013-02-18 18:55:00,67.1,54.1,30.23,NNW,345,4.0,4.0,63,0.00,,,0.00,Wunderground v.1.15,2013-02-18 23:55:00,
2013-02-18 19:00:00,67.1,54.9,30.23,NE,43,3.0,6.0,65,0.00,,,0.00,Wunderground v.1.15,2013-02-19 00:00:00,
2013-02-18 19:10:00,66.9,54.7,30.23,ENE,68,4.0,4.0,65,0.00,,,0.00,Wunderground v.1.15,2013-02-19 00:10:00,
2013-02-18 19:15:00,66.9,54.7,30.23,North,352,4.0,4.0,65,0.00,,,0.00,Wunderground v.1.15,2013-02-19 00:15:00,
2013-02-18 19:25:00,66.8,54.7,30.23,ENE,58,4.0,6.0,65,0.00,,,0.00,Wunderground v.1.15,2013-02-19 00:25:00,
2013-02-18 19:35:00,66.7,55.0,30.23,West,281,3.0,4.0,66,0.00,,,0.00,Wunderground v.1.15,2013-02-19 00:35:00,
2013-02-18 19:44:00,66.9,55.6,30.23,NNW,335,3.0,3.0,67,0.00,,,0.00,Wunderground v.1.15,2013-02-19 00:44:00,
2013-02-18 19:50:00,67.0,55.7,30.23,NW,319,3.0,9.0,67,0.00,,,0.00,Wunderground v.1.15,2013-02-19 00:50:00,
2013-02-18 20:00:00,67.2,55.5,30.23,West,266,4.0,4.0,66,0.00,,,0.00,Wunderground v.1.15,2013-02-19 01:00:00,
2013-02-18 20:10:00,67.3,55.5,30.23,ESE,104,3.0,3.0,66,0.00,,,0.00,Wunderground v.1.15,2013-02-19 01:10:00,
2013-02-18 20:15:00,67.4,56.1,30.23,NNW,346,3.0,4.0,67,0.00,,,0.00,Wunderground v.1.15,2013-02-19 01:15:00,
2013-02-18 20:25:00,67.3,55.5,30.23,North,357,3.0,3.0,66,0.00,,,0.00,Wunderground v.1.15,2013-02-19 01:25:00,
2013-02-18 20:35:00,67.3,56.0,30.23,NNE,27,3.0,4.0,67,0.00,,,0.00,Wunderground v.1.15,2013-02-19 01:35:00,
2013-02-18 20:45:00,67.4,55.6,30.23,East,82,3.0,3.0,66,0.00,,,0.00,Wunderground v.1.15,2013-02-19 01:45:00,
2013-02-18 20:54:00,67.5,56.6,30.22,NW,309,3.0,7.0,68,0.00,,,0.00,Wunderground v.1.15,2013-02-19 01:54:00,
2013-02-18 21:00:00,67.5,56.6,30.23,NNW,330,4.0,4.0,68,0.00,,,0.00,Wunderground v.1.15,2013-02-19 02:00:00,
2013-02-18 21:10:00,67.5,56.6,30.23,NNE,15,4.0,4.0,68,0.00,,,0.00,Wunderground v.1.15,2013-02-19 02:10:00,
2013-02-18 21:20:00,67.5,57.4,30.22,NNW,339,4.0,6.0,70,0.00,,,0.00,Wunderground v.1.15,2013-02-19 02:20:00,
2013-02-18 21:30:00,67.6,57.5,30.22,North,354,4.0,5.0,70,0.00,,,0.00,Wunderground v.1.15,2013-02-19 02:30:00,
2013-02-18 21:40:00,67.7,57.6,30.23,NNW,342,4.0,4.0,70,0.00,,,0.00,Wunderground v.1.15,2013-02-19 02:40:00,
2013-02-18 21:45:00,67.6,57.9,30.22,NW,312,3.0,4.0,71,0.00,,,0.00,Wunderground v.1.15,2013-02-19 02:45:00,
2013-02-18 21:55:00,67.5,58.2,30.22,NE,39,3.0,3.0,72,0.00,,,0.00,Wunderground v.1.15,2013-02-19 02:55:00,
2013-02-18 22:00:00,67.7,57.6,30.22,ESE,117,3.0,5.0,70,0.00,,,0.00,Wunderground v.1.15,2013-02-19 03:00:00,
2013-02-18 22:10:00,68.1,56.7,30.22,NE,49,4.0,5.0,67,0.00,,,0.00,Wunderground v.1.15,2013-02-19 03:10:00,
2013-02-18 22:15:00,68.2,56.4,30.22,ENE,61,4.0,5.0,66,0.00,,,0.00,Wunderground v.1.15,2013-02-19 03:15:00,
2013-02-18 22:25:00,68.4,56.6,30.22,ENE,78,4.0,7.0,66,0.00,,,0.00,Wunderground v.1.15,2013-02-19 03:25:00,
2013-02-18 22:35:00,68.4,57.0,30.22,WSW,255,4.0,6.0,67,0.00,,,0.00,Wunderground v.1.15,2013-02-19 03:35:00,
2013-02-18 22:40:00,68.4,56.6,30.22,WNW,302,4.0,4.0,66,0.00,,,0.00,Wunderground v.1.15,2013-02-19 03:40:00,
2013-02-18 22:50:00,68.4,56.6,30.22,ENE,61,4.0,5.0,66,0.00,,,0.00,Wunderground v.1.15,2013-02-19 03:50:00,
2013-02-18 23:00:00,68.3,56.1,30.22,East,83,4.0,6.0,65,0.00,,,0.00,Wunderground v.1.15,2013-02-19 04:00:00,
2013-02-18 23:10:00,68.4,57.0,30.22,East,90,4.0,4.0,67,0.00,,,0.00,Wunderground v.1.15,2013-02-19 04:10:00,
2013-02-18 23:20:00,68.3,56.1,30.22,East,82,4.0,4.0,65,0.00,,,0.00,Wunderground v.1.15,2013-02-19 04:20:00,
2013-02-18 23:30:00,68.3,56.9,30.22,East,96,3.0,3.0,67,0.00,,,0.00,Wunderground v.1.15,2013-02-19 04:30:00,
2013-02-18 23:40:00,68.3,56.9,30.21,ENE,67,4.0,7.0,67,0.00,,,0.00,Wunderground v.1.15,2013-02-19 04:40:00,
2013-02-18 23:45:00,68.3,57.3,30.21,East,86,5.0,9.0,68,0.00,,,0.00,Wunderground v.1.15,2013-02-19 04:45:00,
2013-02-18 23:55:00,68.3,57.7,30.21,NE,36,4.0,7.0,69,0.00,,,0.00,Wunderground v.1.15,2013-02-19 04:55:00,